Spring Valley, Ohio
Current Conditions -  °F | °C
As of 10:53 AM on Friday 31 Oct 2014 (Local Time) from KMGY Reporting Station
Overcast Overcast  
Wind Chill: 42°   Ceiling: 7000
Heat Index: 45°   Visibility: 10mi
Dew Point: 39°   Wind: 6mph
Humidity: 80%   Direction: 230°SW
Pressure: 29.93"   Gusts: NA
Location:  39.61°N, 84.01°W
Report Text: KMGY 311453Z AUTO 23005KT 10SM SCT042 OVC070 07/04 A2993 RMK AO2 SLP140 T00720039 58007
Loading
Personal Weather Stations






























Interactive Weather Map
Tropical Storm Tracking
New forecast layout! Learn more

10-Day Weather Forecast

Advertisements
Track Severe Weather on mobile